sensor_id;sensor_type;location;lat;lon;timestamp;P1;durP1;ratioP1;P2;durP2;ratioP2
50319;SDS011;36226;53.464;9.852;2023-05-07T00:00:50;13.32;;;9.13;;
50319;SDS011;36226;53.464;9.852;2023-05-07T00:03:16;14.30;;;9.00;;
50319;SDS011;36226;53.464;9.852;2023-05-07T00:05:41;13.40;;;8.82;;
50319;SDS011;36226;53.464;9.852;2023-05-07T00:08:07;10.77;;;7.45;;
50319;SDS011;36226;53.464;9.852;2023-05-07T00:10:32;12.48;;;8.50;;
50319;SDS011;36226;53.464;9.852;2023-05-07T00:12:58;12.15;;;8.23;;
50319;SDS011;36226;53.464;9.852;2023-05-07T00:15:23;14.15;;;9.32;;
50319;SDS011;36226;53.464;9.852;2023-05-07T00:17:49;11.60;;;7.57;;
50319;SDS011;36226;53.464;9.852;2023-05-07T00:20:14;10.75;;;6.93;;
50319;SDS011;36226;53.464;9.852;2023-05-07T00:22:40;12.98;;;8.23;;
50319;SDS011;36226;53.464;9.852;2023-05-07T00:25:06;11.88;;;7.50;;
50319;SDS011;36226;53.464;9.852;2023-05-07T00:27:31;13.18;;;7.80;;
50319;SDS011;36226;53.464;9.852;2023-05-07T00:29:57;11.93;;;7.35;;
50319;SDS011;36226;53.464;9.852;2023-05-07T00:32:22;11.20;;;7.50;;
50319;SDS011;36226;53.464;9.852;2023-05-07T00:34:47;12.07;;;7.43;;
50319;SDS011;36226;53.464;9.852;2023-05-07T00:37:13;12.55;;;7.65;;
50319;SDS011;36226;53.464;9.852;2023-05-07T00:39:38;12.10;;;7.13;;
50319;SDS011;36226;53.464;9.852;2023-05-07T00:42:03;10.95;;;7.50;;
50319;SDS011;36226;53.464;9.852;2023-05-07T00:44:29;12.77;;;7.18;;
50319;SDS011;36226;53.464;9.852;2023-05-07T00:46:55;11.80;;;7.13;;
50319;SDS011;36226;53.464;9.852;2023-05-07T00:49:22;12.10;;;7.47;;
50319;SDS011;36226;53.464;9.852;2023-05-07T00:51:47;10.15;;;7.13;;
50319;SDS011;36226;53.464;9.852;2023-05-07T00:54:12;11.43;;;6.78;;
50319;SDS011;36226;53.464;9.852;2023-05-07T00:56:38;8.98;;;6.15;;
50319;SDS011;36226;53.464;9.852;2023-05-07T00:59:04;9.65;;;6.63;;
50319;SDS011;36226;53.464;9.852;2023-05-07T01:01:31;9.23;;;6.55;;
50319;SDS011;36226;53.464;9.852;2023-05-07T01:03:56;10.95;;;6.80;;
50319;SDS011;36226;53.464;9.852;2023-05-07T01:06:22;9.00;;;5.85;;
50319;SDS011;36226;53.464;9.852;2023-05-07T01:08:48;8.82;;;6.82;;
50319;SDS011;36226;53.464;9.852;2023-05-07T01:11:15;8.55;;;5.95;;
50319;SDS011;36226;53.464;9.852;2023-05-07T01:13:41;9.70;;;6.75;;
50319;SDS011;36226;53.464;9.852;2023-05-07T01:16:08;10.13;;;6.65;;
50319;SDS011;36226;53.464;9.852;2023-05-07T01:18:33;9.02;;;6.28;;
50319;SDS011;36226;53.464;9.852;2023-05-07T01:20:59;8.25;;;5.57;;
50319;SDS011;36226;53.464;9.852;2023-05-07T01:23:26;8.50;;;5.80;;
50319;SDS011;36226;53.464;9.852;2023-05-07T01:25:53;9.50;;;6.20;;
50319;SDS011;36226;53.464;9.852;2023-05-07T01:28:19;7.15;;;5.40;;
50319;SDS011;36226;53.464;9.852;2023-05-07T01:30:45;9.68;;;6.60;;
50319;SDS011;36226;53.464;9.852;2023-05-07T01:33:13;8.02;;;6.00;;
50319;SDS011;36226;53.464;9.852;2023-05-07T01:35:41;10.00;;;6.63;;
50319;SDS011;36226;53.464;9.852;2023-05-07T01:38:09;8.57;;;5.90;;
50319;SDS011;36226;53.464;9.852;2023-05-07T01:40:35;10.38;;;6.07;;
50319;SDS011;36226;53.464;9.852;2023-05-07T01:43:01;8.98;;;5.72;;
50319;SDS011;36226;53.464;9.852;2023-05-07T01:45:27;7.90;;;5.55;;
50319;SDS011;36226;53.464;9.852;2023-05-07T01:47:53;8.43;;;6.03;;
50319;SDS011;36226;53.464;9.852;2023-05-07T01:50:19;8.75;;;5.75;;
50319;SDS011;36226;53.464;9.852;2023-05-07T01:52:46;8.05;;;5.85;;
50319;SDS011;36226;53.464;9.852;2023-05-07T01:55:12;9.30;;;6.40;;
50319;SDS011;36226;53.464;9.852;2023-05-07T01:57:38;9.20;;;5.70;;
50319;SDS011;36226;53.464;9.852;2023-05-07T02:00:03;8.15;;;6.10;;
50319;SDS011;36226;53.464;9.852;2023-05-07T02:02:30;9.25;;;6.05;;
50319;SDS011;36226;53.464;9.852;2023-05-07T02:04:55;8.40;;;5.93;;
50319;SDS011;36226;53.464;9.852;2023-05-07T02:07:20;9.05;;;6.38;;
50319;SDS011;36226;53.464;9.852;2023-05-07T02:09:46;8.30;;;5.78;;
50319;SDS011;36226;53.464;9.852;2023-05-07T02:12:11;6.97;;;5.47;;
50319;SDS011;36226;53.464;9.852;2023-05-07T02:14:36;8.57;;;5.72;;
50319;SDS011;36226;53.464;9.852;2023-05-07T02:17:02;8.82;;;6.32;;
50319;SDS011;36226;53.464;9.852;2023-05-07T02:19:27;9.23;;;6.72;;
50319;SDS011;36226;53.464;9.852;2023-05-07T02:21:53;9.45;;;6.13;;
50319;SDS011;36226;53.464;9.852;2023-05-07T02:24:19;7.95;;;5.68;;
50319;SDS011;36226;53.464;9.852;2023-05-07T02:26:44;9.23;;;6.43;;
50319;SDS011;36226;53.464;9.852;2023-05-07T02:29:10;9.20;;;6.07;;
50319;SDS011;36226;53.464;9.852;2023-05-07T02:31:35;10.68;;;6.68;;
50319;SDS011;36226;53.464;9.852;2023-05-07T02:34:00;8.68;;;6.80;;
50319;SDS011;36226;53.464;9.852;2023-05-07T02:36:26;7.25;;;5.93;;
50319;SDS011;36226;53.464;9.852;2023-05-07T02:38:51;9.38;;;6.40;;
50319;SDS011;36226;53.464;9.852;2023-05-07T02:41:17;8.40;;;6.25;;
50319;SDS011;36226;53.464;9.852;2023-05-07T02:43:42;10.05;;;6.65;;
50319;SDS011;36226;53.464;9.852;2023-05-07T02:46:08;9.65;;;6.72;;
50319;SDS011;36226;53.464;9.852;2023-05-07T02:48:34;9.35;;;6.22;;
50319;SDS011;36226;53.464;9.852;2023-05-07T02:50:59;10.95;;;6.60;;
50319;SDS011;36226;53.464;9.852;2023-05-07T02:53:25;8.73;;;6.28;;
50319;SDS011;36226;53.464;9.852;2023-05-07T02:55:58;9.02;;;6.55;;
50319;SDS011;36226;53.464;9.852;2023-05-07T02:58:24;8.93;;;6.13;;
50319;SDS011;36226;53.464;9.852;2023-05-07T03:00:50;9.70;;;6.75;;
50319;SDS011;36226;53.464;9.852;2023-05-07T03:03:15;8.82;;;6.63;;
50319;SDS011;36226;53.464;9.852;2023-05-07T03:05:41;11.07;;;7.15;;
50319;SDS011;36226;53.464;9.852;2023-05-07T03:08:06;8.80;;;6.32;;
50319;SDS011;36226;53.464;9.852;2023-05-07T03:10:32;9.80;;;6.55;;
50319;SDS011;36226;53.464;9.852;2023-05-07T03:12:57;13.45;;;7.28;;
50319;SDS011;36226;53.464;9.852;2023-05-07T03:15:23;9.65;;;6.63;;
50319;SDS011;36226;53.464;9.852;2023-05-07T03:17:48;11.85;;;7.45;;
50319;SDS011;36226;53.464;9.852;2023-05-07T03:20:14;11.55;;;7.70;;
50319;SDS011;36226;53.464;9.852;2023-05-07T03:22:39;10.80;;;7.80;;
50319;SDS011;36226;53.464;9.852;2023-05-07T03:25:06;10.93;;;7.35;;
50319;SDS011;36226;53.464;9.852;2023-05-07T03:27:32;10.27;;;7.10;;
50319;SDS011;36226;53.464;9.852;2023-05-07T03:29:57;13.43;;;8.13;;
50319;SDS011;36226;53.464;9.852;2023-05-07T03:32:23;10.43;;;7.55;;
50319;SDS011;36226;53.464;9.852;2023-05-07T03:34:48;11.07;;;7.65;;
50319;SDS011;36226;53.464;9.852;2023-05-07T03:37:13;10.50;;;7.35;;
50319;SDS011;36226;53.464;9.852;2023-05-07T03:39:39;11.52;;;7.35;;
50319;SDS011;36226;53.464;9.852;2023-05-07T03:42:04;13.07;;;7.82;;
50319;SDS011;36226;53.464;9.852;2023-05-07T03:44:29;11.85;;;7.80;;
50319;SDS011;36226;53.464;9.852;2023-05-07T03:46:55;11.57;;;8.13;;
50319;SDS011;36226;53.464;9.852;2023-05-07T03:49:20;11.77;;;7.82;;
50319;SDS011;36226;53.464;9.852;2023-05-07T03:51:46;10.50;;;7.60;;
50319;SDS011;36226;53.464;9.852;2023-05-07T03:54:11;11.55;;;7.65;;
50319;SDS011;36226;53.464;9.852;2023-05-07T03:56:37;11.63;;;8.13;;
50319;SDS011;36226;53.464;9.852;2023-05-07T03:59:02;12.30;;;7.88;;
50319;SDS011;36226;53.464;9.852;2023-05-07T04:01:27;13.30;;;7.82;;
50319;SDS011;36226;53.464;9.852;2023-05-07T04:03:53;14.43;;;8.05;;
50319;SDS011;36226;53.464;9.852;2023-05-07T04:06:18;11.38;;;7.65;;
50319;SDS011;36226;53.464;9.852;2023-05-07T04:08:43;13.15;;;7.75;;
50319;SDS011;36226;53.464;9.852;2023-05-07T04:11:09;11.77;;;8.05;;
50319;SDS011;36226;53.464;9.852;2023-05-07T04:13:34;12.30;;;8.10;;
50319;SDS011;36226;53.464;9.852;2023-05-07T04:16:00;11.15;;;7.90;;
50319;SDS011;36226;53.464;9.852;2023-05-07T04:18:27;12.52;;;8.30;;
50319;SDS011;36226;53.464;9.852;2023-05-07T04:20:52;13.25;;;7.93;;
50319;SDS011;36226;53.464;9.852;2023-05-07T04:23:18;12.00;;;7.70;;
50319;SDS011;36226;53.464;9.852;2023-05-07T04:25:43;12.40;;;8.18;;
50319;SDS011;36226;53.464;9.852;2023-05-07T04:28:08;11.77;;;8.32;;
50319;SDS011;36226;53.464;9.852;2023-05-07T04:30:34;11.70;;;7.70;;
50319;SDS011;36226;53.464;9.852;2023-05-07T04:32:59;12.55;;;8.20;;
50319;SDS011;36226;53.464;9.852;2023-05-07T04:35:25;11.98;;;7.60;;
50319;SDS011;36226;53.464;9.852;2023-05-07T04:37:50;10.77;;;7.30;;
50319;SDS011;36226;53.464;9.852;2023-05-07T04:40:15;11.55;;;8.10;;
50319;SDS011;36226;53.464;9.852;2023-05-07T04:42:43;11.00;;;7.50;;
50319;SDS011;36226;53.464;9.852;2023-05-07T04:45:09;11.60;;;8.02;;
50319;SDS011;36226;53.464;9.852;2023-05-07T04:47:35;11.52;;;7.68;;
50319;SDS011;36226;53.464;9.852;2023-05-07T04:50:01;11.38;;;7.30;;
50319;SDS011;36226;53.464;9.852;2023-05-07T04:52:26;11.57;;;8.00;;
50319;SDS011;36226;53.464;9.852;2023-05-07T04:54:52;12.85;;;8.18;;
50319;SDS011;36226;53.464;9.852;2023-05-07T04:57:17;10.80;;;7.95;;
50319;SDS011;36226;53.464;9.852;2023-05-07T04:59:43;12.73;;;8.13;;
50319;SDS011;36226;53.464;9.852;2023-05-07T05:02:09;13.60;;;8.35;;
50319;SDS011;36226;53.464;9.852;2023-05-07T05:04:35;11.10;;;7.90;;
50319;SDS011;36226;53.464;9.852;2023-05-07T05:07:01;11.73;;;7.38;;
50319;SDS011;36226;53.464;9.852;2023-05-07T05:09:28;12.63;;;7.97;;
50319;SDS011;36226;53.464;9.852;2023-05-07T05:11:53;12.25;;;8.48;;
50319;SDS011;36226;53.464;9.852;2023-05-07T05:14:19;12.02;;;8.35;;
50319;SDS011;36226;53.464;9.852;2023-05-07T05:16:44;13.05;;;8.45;;
50319;SDS011;36226;53.464;9.852;2023-05-07T05:19:10;11.38;;;7.97;;
50319;SDS011;36226;53.464;9.852;2023-05-07T05:21:35;13.23;;;7.47;;
50319;SDS011;36226;53.464;9.852;2023-05-07T05:24:00;12.95;;;7.93;;
50319;SDS011;36226;53.464;9.852;2023-05-07T05:26:26;11.52;;;8.02;;
50319;SDS011;36226;53.464;9.852;2023-05-07T05:28:51;11.88;;;7.75;;
50319;SDS011;36226;53.464;9.852;2023-05-07T05:31:16;12.50;;;7.95;;
50319;SDS011;36226;53.464;9.852;2023-05-07T05:33:42;11.75;;;7.68;;
50319;SDS011;36226;53.464;9.852;2023-05-07T05:36:10;10.80;;;7.65;;
50319;SDS011;36226;53.464;9.852;2023-05-07T05:38:37;14.35;;;7.88;;
50319;SDS011;36226;53.464;9.852;2023-05-07T05:41:03;12.27;;;7.97;;
50319;SDS011;36226;53.464;9.852;2023-05-07T05:43:28;13.02;;;8.20;;
50319;SDS011;36226;53.464;9.852;2023-05-07T05:45:55;11.95;;;7.80;;
50319;SDS011;36226;53.464;9.852;2023-05-07T05:48:20;11.65;;;8.43;;
50319;SDS011;36226;53.464;9.852;2023-05-07T05:50:46;12.30;;;7.88;;
50319;SDS011;36226;53.464;9.852;2023-05-07T05:53:11;12.68;;;7.72;;
50319;SDS011;36226;53.464;9.852;2023-05-07T05:55:36;11.07;;;7.60;;
50319;SDS011;36226;53.464;9.852;2023-05-07T05:58:02;11.43;;;7.93;;
50319;SDS011;36226;53.464;9.852;2023-05-07T06:00:27;12.25;;;8.05;;
50319;SDS011;36226;53.464;9.852;2023-05-07T06:02:53;13.57;;;7.95;;
50319;SDS011;36226;53.464;9.852;2023-05-07T06:05:18;11.93;;;7.07;;
50319;SDS011;36226;53.464;9.852;2023-05-07T06:07:44;11.43;;;7.53;;
50319;SDS011;36226;53.464;9.852;2023-05-07T06:10:09;12.07;;;8.15;;
50319;SDS011;36226;53.464;9.852;2023-05-07T06:12:35;12.30;;;8.27;;
50319;SDS011;36226;53.464;9.852;2023-05-07T06:15:00;12.50;;;7.53;;
50319;SDS011;36226;53.464;9.852;2023-05-07T06:17:26;13.45;;;7.57;;
50319;SDS011;36226;53.464;9.852;2023-05-07T06:19:52;11.27;;;7.50;;
50319;SDS011;36226;53.464;9.852;2023-05-07T06:22:17;12.50;;;7.22;;
50319;SDS011;36226;53.464;9.852;2023-05-07T06:24:42;12.50;;;7.22;;
50319;SDS011;36226;53.464;9.852;2023-05-07T06:27:08;10.95;;;6.53;;
50319;SDS011;36226;53.464;9.852;2023-05-07T06:29:33;10.57;;;7.20;;
50319;SDS011;36226;53.464;9.852;2023-05-07T06:32:11;11.27;;;7.00;;
50319;SDS011;36226;53.464;9.852;2023-05-07T06:34:37;10.73;;;6.93;;
50319;SDS011;36226;53.464;9.852;2023-05-07T06:37:03;11.27;;;6.90;;
50319;SDS011;36226;53.464;9.852;2023-05-07T06:39:29;9.43;;;6.60;;
50319;SDS011;36226;53.464;9.852;2023-05-07T06:41:54;10.90;;;6.63;;
50319;SDS011;36226;53.464;9.852;2023-05-07T06:44:19;9.85;;;6.78;;
50319;SDS011;36226;53.464;9.852;2023-05-07T06:46:45;11.00;;;6.93;;
50319;SDS011;36226;53.464;9.852;2023-05-07T06:49:12;9.43;;;6.50;;
50319;SDS011;36226;53.464;9.852;2023-05-07T06:51:38;9.73;;;6.32;;
50319;SDS011;36226;53.464;9.852;2023-05-07T06:54:03;10.20;;;6.57;;
50319;SDS011;36226;53.464;9.852;2023-05-07T06:56:29;9.68;;;6.53;;
50319;SDS011;36226;53.464;9.852;2023-05-07T06:58:55;10.88;;;7.15;;
50319;SDS011;36226;53.464;9.852;2023-05-07T07:01:20;9.10;;;5.85;;
50319;SDS011;36226;53.464;9.852;2023-05-07T07:03:46;9.68;;;6.55;;
50319;SDS011;36226;53.464;9.852;2023-05-07T07:06:11;9.75;;;6.53;;
50319;SDS011;36226;53.464;9.852;2023-05-07T07:08:37;10.52;;;6.70;;
50319;SDS011;36226;53.464;9.852;2023-05-07T07:11:03;9.30;;;6.20;;
50319;SDS011;36226;53.464;9.852;2023-05-07T07:13:29;9.52;;;6.32;;
50319;SDS011;36226;53.464;9.852;2023-05-07T07:15:55;9.18;;;5.80;;
50319;SDS011;36226;53.464;9.852;2023-05-07T07:18:20;7.75;;;5.65;;
50319;SDS011;36226;53.464;9.852;2023-05-07T07:20:45;10.73;;;5.95;;
50319;SDS011;36226;53.464;9.852;2023-05-07T07:23:11;9.27;;;6.03;;
50319;SDS011;36226;53.464;9.852;2023-05-07T07:25:36;8.32;;;5.68;;
50319;SDS011;36226;53.464;9.852;2023-05-07T07:28:02;9.63;;;6.55;;
50319;SDS011;36226;53.464;9.852;2023-05-07T07:30:27;10.43;;;6.60;;
50319;SDS011;36226;53.464;9.852;2023-05-07T07:32:53;9.77;;;6.07;;
50319;SDS011;36226;53.464;9.852;2023-05-07T07:35:18;10.75;;;6.25;;
50319;SDS011;36226;53.464;9.852;2023-05-07T07:37:44;10.13;;;5.88;;
50319;SDS011;36226;53.464;9.852;2023-05-07T07:40:09;9.38;;;6.20;;
50319;SDS011;36226;53.464;9.852;2023-05-07T07:42:36;9.15;;;5.75;;
50319;SDS011;36226;53.464;9.852;2023-05-07T07:45:01;9.02;;;5.75;;
50319;SDS011;36226;53.464;9.852;2023-05-07T07:47:27;9.10;;;5.80;;
50319;SDS011;36226;53.464;9.852;2023-05-07T07:49:53;9.05;;;6.32;;
50319;SDS011;36226;53.464;9.852;2023-05-07T07:52:18;10.15;;;6.03;;
50319;SDS011;36226;53.464;9.852;2023-05-07T07:54:44;8.48;;;5.43;;
50319;SDS011;36226;53.464;9.852;2023-05-07T07:57:09;8.43;;;5.55;;
50319;SDS011;36226;53.464;9.852;2023-05-07T07:59:35;8.10;;;5.60;;
50319;SDS011;36226;53.464;9.852;2023-05-07T08:02:00;8.35;;;5.60;;
50319;SDS011;36226;53.464;9.852;2023-05-07T08:04:25;8.00;;;5.78;;
50319;SDS011;36226;53.464;9.852;2023-05-07T08:06:51;13.27;;;8.70;;
50319;SDS011;36226;53.464;9.852;2023-05-07T08:09:16;10.68;;;5.38;;
50319;SDS011;36226;53.464;9.852;2023-05-07T08:11:42;10.50;;;5.40;;
50319;SDS011;36226;53.464;9.852;2023-05-07T08:14:07;8.05;;;5.53;;
50319;SDS011;36226;53.464;9.852;2023-05-07T08:16:32;12.05;;;8.15;;
50319;SDS011;36226;53.464;9.852;2023-05-07T08:18:58;9.80;;;6.75;;
50319;SDS011;36226;53.464;9.852;2023-05-07T08:21:23;8.80;;;5.10;;
50319;SDS011;36226;53.464;9.852;2023-05-07T08:23:48;9.18;;;5.53;;
50319;SDS011;36226;53.464;9.852;2023-05-07T08:26:14;10.77;;;4.93;;
50319;SDS011;36226;53.464;9.852;2023-05-07T08:28:39;7.15;;;4.95;;
50319;SDS011;36226;53.464;9.852;2023-05-07T08:31:05;9.77;;;5.65;;
50319;SDS011;36226;53.464;9.852;2023-05-07T08:33:30;8.13;;;5.57;;
50319;SDS011;36226;53.464;9.852;2023-05-07T08:35:56;6.32;;;4.68;;
50319;SDS011;36226;53.464;9.852;2023-05-07T08:38:21;7.15;;;5.15;;
50319;SDS011;36226;53.464;9.852;2023-05-07T08:40:46;7.35;;;4.88;;
50319;SDS011;36226;53.464;9.852;2023-05-07T08:43:12;9.35;;;5.20;;
50319;SDS011;36226;53.464;9.852;2023-05-07T08:45:39;8.20;;;4.68;;
50319;SDS011;36226;53.464;9.852;2023-05-07T08:48:07;9.05;;;4.47;;
50319;SDS011;36226;53.464;9.852;2023-05-07T08:50:35;6.43;;;4.60;;
50319;SDS011;36226;53.464;9.852;2023-05-07T08:53:02;7.90;;;5.40;;
50319;SDS011;36226;53.464;9.852;2023-05-07T08:55:28;10.57;;;5.03;;
50319;SDS011;36226;53.464;9.852;2023-05-07T08:57:54;10.10;;;5.70;;
50319;SDS011;36226;53.464;9.852;2023-05-07T09:00:19;7.45;;;4.60;;
50319;SDS011;36226;53.464;9.852;2023-05-07T09:02:45;7.15;;;5.15;;
50319;SDS011;36226;53.464;9.852;2023-05-07T09:05:10;7.15;;;4.70;;
50319;SDS011;36226;53.464;9.852;2023-05-07T09:07:36;8.77;;;4.70;;
50319;SDS011;36226;53.464;9.852;2023-05-07T09:10:04;9.38;;;4.80;;
50319;SDS011;36226;53.464;9.852;2023-05-07T09:12:30;7.10;;;4.40;;
50319;SDS011;36226;53.464;9.852;2023-05-07T09:14:56;6.85;;;4.55;;
50319;SDS011;36226;53.464;9.852;2023-05-07T09:17:21;7.05;;;4.63;;
50319;SDS011;36226;53.464;9.852;2023-05-07T09:19:47;6.80;;;4.43;;
50319;SDS011;36226;53.464;9.852;2023-05-07T09:22:12;6.28;;;4.40;;
50319;SDS011;36226;53.464;9.852;2023-05-07T09:24:38;4.95;;;4.00;;
50319;SDS011;36226;53.464;9.852;2023-05-07T09:27:04;6.47;;;4.30;;
50319;SDS011;36226;53.464;9.852;2023-05-07T09:29:30;6.72;;;4.10;;
50319;SDS011;36226;53.464;9.852;2023-05-07T09:32:00;6.82;;;4.85;;
50319;SDS011;36226;53.464;9.852;2023-05-07T09:34:29;5.97;;;4.50;;
50319;SDS011;36226;53.464;9.852;2023-05-07T09:36:55;7.90;;;4.80;;
50319;SDS011;36226;53.464;9.852;2023-05-07T09:39:21;7.88;;;5.25;;
50319;SDS011;36226;53.464;9.852;2023-05-07T09:41:48;6.82;;;4.53;;
50319;SDS011;36226;53.464;9.852;2023-05-07T09:44:14;6.68;;;4.78;;
50319;SDS011;36226;53.464;9.852;2023-05-07T09:46:42;6.60;;;4.88;;
50319;SDS011;36226;53.464;9.852;2023-05-07T09:49:09;6.03;;;4.85;;
50319;SDS011;36226;53.464;9.852;2023-05-07T09:51:48;9.43;;;5.00;;
50319;SDS011;36226;53.464;9.852;2023-05-07T09:54:15;7.85;;;4.97;;
50319;SDS011;36226;53.464;9.852;2023-05-07T09:56:42;7.63;;;5.20;;
50319;SDS011;36226;53.464;9.852;2023-05-07T09:59:14;7.13;;;4.78;;
50319;SDS011;36226;53.464;9.852;2023-05-07T10:01:41;7.07;;;5.25;;
50319;SDS011;36226;53.464;9.852;2023-05-07T10:04:07;7.40;;;5.30;;
50319;SDS011;36226;53.464;9.852;2023-05-07T10:06:34;7.70;;;4.88;;
50319;SDS011;36226;53.464;9.852;2023-05-07T10:09:00;9.73;;;4.85;;
50319;SDS011;36226;53.464;9.852;2023-05-07T10:11:25;7.55;;;5.25;;
50319;SDS011;36226;53.464;9.852;2023-05-07T10:13:54;5.63;;;4.55;;
50319;SDS011;36226;53.464;9.852;2023-05-07T10:16:20;7.70;;;5.22;;
50319;SDS011;36226;53.464;9.852;2023-05-07T10:18:46;8.45;;;5.47;;
50319;SDS011;36226;53.464;9.852;2023-05-07T10:21:13;8.98;;;5.70;;
50319;SDS011;36226;53.464;9.852;2023-05-07T10:23:51;7.72;;;5.63;;
50319;SDS011;36226;53.464;9.852;2023-05-07T10:26:19;8.67;;;5.07;;
50319;SDS011;36226;53.464;9.852;2023-05-07T10:28:46;7.70;;;5.47;;
50319;SDS011;36226;53.464;9.852;2023-05-07T10:31:38;9.45;;;5.43;;
50319;SDS011;36226;53.464;9.852;2023-05-07T10:34:12;6.63;;;5.13;;
50319;SDS011;36226;53.464;9.852;2023-05-07T10:36:40;7.07;;;5.47;;
50319;SDS011;36226;53.464;9.852;2023-05-07T10:39:07;6.97;;;5.18;;
50319;SDS011;36226;53.464;9.852;2023-05-07T10:41:32;6.22;;;5.22;;
50319;SDS011;36226;53.464;9.852;2023-05-07T10:43:58;7.32;;;5.00;;
50319;SDS011;36226;53.464;9.852;2023-05-07T10:46:26;8.88;;;6.00;;
50319;SDS011;36226;53.464;9.852;2023-05-07T10:51:31;9.15;;;5.88;;
50319;SDS011;36226;53.464;9.852;2023-05-07T10:56:43;8.27;;;5.75;;
50319;SDS011;36226;53.464;9.852;2023-05-07T11:02:04;7.90;;;5.28;;
50319;SDS011;36226;53.464;9.852;2023-05-07T11:04:31;7.95;;;5.50;;
50319;SDS011;36226;53.464;9.852;2023-05-07T11:15:04;8.10;;;5.95;;
50319;SDS011;36226;53.464;9.852;2023-05-07T11:17:56;7.45;;;5.32;;
50319;SDS011;36226;53.464;9.852;2023-05-07T11:23:54;8.45;;;6.13;;
50319;SDS011;36226;53.464;9.852;2023-05-07T11:26:14;6.90;;;5.28;;
50319;SDS011;36226;53.464;9.852;2023-05-07T11:28:41;8.45;;;6.10;;
50319;SDS011;36226;53.464;9.852;2023-05-07T11:31:08;6.88;;;5.25;;
50319;SDS011;36226;53.464;9.852;2023-05-07T11:33:34;6.80;;;5.15;;
50319;SDS011;36226;53.464;9.852;2023-05-07T11:36:00;7.28;;;5.32;;
50319;SDS011;36226;53.464;9.852;2023-05-07T11:38:25;8.18;;;5.88;;
50319;SDS011;36226;53.464;9.852;2023-05-07T11:40:55;7.50;;;5.30;;
50319;SDS011;36226;53.464;9.852;2023-05-07T11:43:21;7.25;;;5.28;;
50319;SDS011;36226;53.464;9.852;2023-05-07T11:45:47;7.53;;;4.65;;
50319;SDS011;36226;53.464;9.852;2023-05-07T11:48:13;7.35;;;5.25;;
50319;SDS011;36226;53.464;9.852;2023-05-07T11:50:51;6.03;;;4.70;;
50319;SDS011;36226;53.464;9.852;2023-05-07T11:53:18;5.65;;;4.70;;
50319;SDS011;36226;53.464;9.852;2023-05-07T11:55:44;5.65;;;4.53;;
50319;SDS011;36226;53.464;9.852;2023-05-07T11:58:12;5.72;;;4.25;;
50319;SDS011;36226;53.464;9.852;2023-05-07T12:00:38;5.57;;;4.43;;
50319;SDS011;36226;53.464;9.852;2023-05-07T12:03:04;5.75;;;4.20;;
50319;SDS011;36226;53.464;9.852;2023-05-07T12:05:29;6.93;;;4.40;;
50319;SDS011;36226;53.464;9.852;2023-05-07T12:07:56;6.65;;;4.50;;
50319;SDS011;36226;53.464;9.852;2023-05-07T12:10:22;5.93;;;4.63;;
50319;SDS011;36226;53.464;9.852;2023-05-07T12:12:47;7.20;;;4.05;;
50319;SDS011;36226;53.464;9.852;2023-05-07T12:15:15;6.93;;;4.15;;
50319;SDS011;36226;53.464;9.852;2023-05-07T12:17:41;5.57;;;4.50;;
50319;SDS011;36226;53.464;9.852;2023-05-07T12:20:06;6.82;;;4.30;;
50319;SDS011;36226;53.464;9.852;2023-05-07T12:22:32;6.43;;;4.38;;
50319;SDS011;36226;53.464;9.852;2023-05-07T12:24:58;8.23;;;4.38;;
50319;SDS011;36226;53.464;9.852;2023-05-07T12:27:24;4.50;;;3.70;;
50319;SDS011;36226;53.464;9.852;2023-05-07T12:29:50;5.82;;;4.15;;
50319;SDS011;36226;53.464;9.852;2023-05-07T12:32:16;5.07;;;3.97;;
50319;SDS011;36226;53.464;9.852;2023-05-07T12:34:43;7.70;;;4.00;;
50319;SDS011;36226;53.464;9.852;2023-05-07T12:37:09;5.47;;;3.60;;
50319;SDS011;36226;53.464;9.852;2023-05-07T12:39:35;4.70;;;3.53;;
50319;SDS011;36226;53.464;9.852;2023-05-07T12:42:00;5.38;;;3.78;;
50319;SDS011;36226;53.464;9.852;2023-05-07T12:44:30;4.60;;;3.58;;
50319;SDS011;36226;53.464;9.852;2023-05-07T12:46:57;5.00;;;3.25;;
50319;SDS011;36226;53.464;9.852;2023-05-07T12:49:23;5.40;;;3.45;;
50319;SDS011;36226;53.464;9.852;2023-05-07T12:51:49;4.65;;;3.65;;
50319;SDS011;36226;53.464;9.852;2023-05-07T12:54:31;4.68;;;3.35;;
50319;SDS011;36226;53.464;9.852;2023-05-07T12:57:07;4.40;;;3.63;;
50319;SDS011;36226;53.464;9.852;2023-05-07T12:59:38;5.50;;;3.50;;
50319;SDS011;36226;53.464;9.852;2023-05-07T13:02:04;4.80;;;3.28;;
50319;SDS011;36226;53.464;9.852;2023-05-07T13:04:30;4.68;;;3.33;;
50319;SDS011;36226;53.464;9.852;2023-05-07T13:06:55;4.70;;;3.65;;
50319;SDS011;36226;53.464;9.852;2023-05-07T13:09:21;3.90;;;3.17;;
50319;SDS011;36226;53.464;9.852;2023-05-07T13:11:46;4.88;;;3.38;;
50319;SDS011;36226;53.464;9.852;2023-05-07T13:14:12;3.72;;;2.97;;
50319;SDS011;36226;53.464;9.852;2023-05-07T13:16:37;3.17;;;2.88;;
50319;SDS011;36226;53.464;9.852;2023-05-07T13:19:02;5.70;;;3.45;;
50319;SDS011;36226;53.464;9.852;2023-05-07T13:21:28;4.60;;;2.95;;
50319;SDS011;36226;53.464;9.852;2023-05-07T13:23:53;4.28;;;2.70;;
50319;SDS011;36226;53.464;9.852;2023-05-07T13:26:18;3.88;;;2.97;;
50319;SDS011;36226;53.464;9.852;2023-05-07T13:28:45;3.60;;;3.00;;
50319;SDS011;36226;53.464;9.852;2023-05-07T13:31:11;4.63;;;2.97;;
50319;SDS011;36226;53.464;9.852;2023-05-07T13:33:36;9.57;;;2.70;;
50319;SDS011;36226;53.464;9.852;2023-05-07T13:36:02;3.78;;;2.60;;
50319;SDS011;36226;53.464;9.852;2023-05-07T13:38:29;3.35;;;2.55;;
50319;SDS011;36226;53.464;9.852;2023-05-07T13:40:55;3.30;;;2.70;;
50319;SDS011;36226;53.464;9.852;2023-05-07T13:43:20;4.05;;;2.35;;
50319;SDS011;36226;53.464;9.852;2023-05-07T13:45:46;3.63;;;2.33;;
50319;SDS011;36226;53.464;9.852;2023-05-07T13:48:11;4.40;;;2.72;;
50319;SDS011;36226;53.464;9.852;2023-05-07T13:50:36;4.30;;;2.80;;
50319;SDS011;36226;53.464;9.852;2023-05-07T13:53:02;3.08;;;2.70;;
50319;SDS011;36226;53.464;9.852;2023-05-07T13:55:28;3.25;;;2.65;;
50319;SDS011;36226;53.464;9.852;2023-05-07T13:58:03;3.72;;;2.80;;
50319;SDS011;36226;53.464;9.852;2023-05-07T14:00:29;3.73;;;2.27;;
50319;SDS011;36226;53.464;9.852;2023-05-07T14:02:55;3.20;;;2.47;;
50319;SDS011;36226;53.464;9.852;2023-05-07T14:05:21;2.75;;;2.50;;
50319;SDS011;36226;53.464;9.852;2023-05-07T14:07:48;3.50;;;2.70;;
50319;SDS011;36226;53.464;9.852;2023-05-07T14:10:16;3.08;;;2.47;;
50319;SDS011;36226;53.464;9.852;2023-05-07T14:12:43;2.92;;;2.45;;
50319;SDS011;36226;53.464;9.852;2023-05-07T14:15:09;2.60;;;2.38;;
50319;SDS011;36226;53.464;9.852;2023-05-07T14:17:35;2.53;;;2.22;;
50319;SDS011;36226;53.464;9.852;2023-05-07T14:20:00;2.70;;;2.30;;
50319;SDS011;36226;53.464;9.852;2023-05-07T14:22:26;4.90;;;2.60;;
50319;SDS011;36226;53.464;9.852;2023-05-07T14:24:51;3.28;;;2.13;;
50319;SDS011;36226;53.464;9.852;2023-05-07T14:27:17;2.45;;;2.10;;
50319;SDS011;36226;53.464;9.852;2023-05-07T14:29:42;2.88;;;2.35;;
50319;SDS011;36226;53.464;9.852;2023-05-07T14:32:08;2.50;;;1.80;;
50319;SDS011;36226;53.464;9.852;2023-05-07T14:34:33;2.42;;;1.70;;
50319;SDS011;36226;53.464;9.852;2023-05-07T14:36:59;2.15;;;1.77;;
50319;SDS011;36226;53.464;9.852;2023-05-07T14:39:25;3.63;;;1.77;;
50319;SDS011;36226;53.464;9.852;2023-05-07T14:41:50;3.20;;;1.63;;
50319;SDS011;36226;53.464;9.852;2023-05-07T14:44:16;2.83;;;1.98;;
50319;SDS011;36226;53.464;9.852;2023-05-07T14:46:41;3.53;;;2.30;;
50319;SDS011;36226;53.464;9.852;2023-05-07T14:49:06;1.98;;;1.60;;
50319;SDS011;36226;53.464;9.852;2023-05-07T14:51:38;3.15;;;1.80;;
50319;SDS011;36226;53.464;9.852;2023-05-07T14:54:04;2.38;;;1.67;;
50319;SDS011;36226;53.464;9.852;2023-05-07T14:56:29;1.88;;;1.75;;